Time;durP1;ratioP1;P1;durP2;ratioP2;P2;SDS_P1;SDS_P2;PMS_P1;PMS_P2;Temp;Humidity;BMP_temperature;BMP_pressure;BME280_temperature;BME280_humidity;BME280_pressure;Samples;Min_cycle;Max_cycle;Signal;HPM_P1;HPM_P2
2021/05/24 00:00:19;;;;;;;7.85;2.00;;;11.10;99.90;;;;;;6133908;23;20052;-84
2021/05/24 00:02:46;;;;;;;4.82;1.90;;;11.10;99.90;;;;;;6131760;23;20040;-84
2021/05/24 00:05:16;;;;;;;5.18;2.28;;;11.10;99.90;;;;;;6167181;23;20330;-84
2021/05/24 00:07:42;;;;;;;4.88;1.65;;;11.00;99.90;;;;;;6132893;23;20023;-85
2021/05/24 00:10:11;;;;;;;5.75;1.88;;;11.10;99.90;;;;;;6157029;23;20446;-86
2021/05/24 00:12:37;;;;;;;4.60;1.67;;;11.20;99.90;;;;;;6156599;23;20064;-85
2021/05/24 00:15:05;;;;;;;3.72;1.45;;;11.40;99.90;;;;;;6130502;23;20016;-86
2021/05/24 00:17:31;;;;;;;4.55;1.58;;;11.30;99.90;;;;;;6131722;23;20024;-87
2021/05/24 00:19:58;;;;;;;5.30;1.80;;;11.30;99.90;;;;;;6130384;23;20020;-85
2021/05/24 00:22:24;;;;;;;7.18;1.70;;;11.40;99.90;;;;;;6130634;23;20009;-86
2021/05/24 00:24:49;;;;;;;4.43;1.60;;;11.40;99.90;;;;;;6129266;23;20027;-88
2021/05/24 00:27:15;;;;;;;5.78;1.73;;;11.40;99.90;;;;;;6166638;23;20103;-84
2021/05/24 00:29:41;;;;;;;8.95;2.08;;;11.50;99.90;;;;;;6164828;23;20013;-85
2021/05/24 00:32:07;;;;;;;6.75;2.05;;;11.60;99.90;;;;;;6154112;23;20322;-88
2021/05/24 00:34:33;;;;;;;4.28;1.65;;;11.50;99.90;;;;;;6125427;23;20480;-83
2021/05/24 00:36:59;;;;;;;6.82;1.60;;;11.50;99.90;;;;;;6159719;23;20088;-87
2021/05/24 00:39:25;;;;;;;4.95;1.63;;;11.50;99.90;;;;;;6151007;23;20096;-84
2021/05/24 00:41:51;;;;;;;6.00;1.73;;;11.50;99.90;;;;;;6150237;23;20017;-84
2021/05/24 00:44:17;;;;;;;7.68;1.63;;;11.40;99.90;;;;;;6150082;23;20332;-86
2021/05/24 00:46:43;;;;;;;5.55;1.80;;;11.50;99.90;;;;;;6161422;23;20445;-86
2021/05/24 00:49:08;;;;;;;6.65;1.60;;;11.60;99.90;;;;;;6151100;23;20021;-85
2021/05/24 00:51:35;;;;;;;4.50;1.88;;;11.60;99.90;;;;;;6157863;23;20037;-83
2021/05/24 00:54:01;;;;;;;5.85;2.08;;;11.50;99.90;;;;;;6173065;23;20013;-86
2021/05/24 00:56:27;;;;;;;6.18;1.80;;;11.50;99.90;;;;;;6150515;23;20113;-86
2021/05/24 00:58:53;;;;;;;7.22;2.30;;;11.50;99.90;;;;;;6175787;23;20097;-85
2021/05/24 01:01:20;;;;;;;4.03;1.70;;;11.50;99.90;;;;;;6174645;23;20041;-84
2021/05/24 01:03:46;;;;;;;4.95;1.90;;;11.40;99.90;;;;;;6150315;23;20029;-84
2021/05/24 01:06:12;;;;;;;5.70;2.13;;;11.30;99.90;;;;;;6127415;23;20036;-87
2021/05/24 01:08:38;;;;;;;4.75;1.60;;;11.30;99.90;;;;;;6152552;23;20048;-84
2021/05/24 01:11:04;;;;;;;9.80;2.00;;;11.20;99.90;;;;;;6163192;23;20018;-87
2021/05/24 01:13:30;;;;;;;6.18;2.03;;;11.10;99.90;;;;;;6185392;23;20427;-86
2021/05/24 01:15:56;;;;;;;3.53;1.95;;;11.00;99.90;;;;;;6184354;23;20010;-91
2021/05/24 01:18:22;;;;;;;6.63;2.10;;;11.00;99.90;;;;;;6161422;23;20092;-87
2021/05/24 01:20:48;;;;;;;6.40;2.05;;;11.00;99.90;;;;;;6153295;23;20033;-89
2021/05/24 01:23:52;;;;;;;7.20;2.17;;;10.80;99.90;;;;;;6150561;23;20040;-88
2021/05/24 01:26:19;;;;;;;5.15;2.13;;;10.90;99.90;;;;;;6149603;23;20020;-86
2021/05/24 01:28:46;;;;;;;4.13;1.95;;;10.80;99.90;;;;;;6151070;23;20023;-84
2021/05/24 01:31:12;;;;;;;5.38;1.90;;;10.90;99.90;;;;;;6185507;23;20033;-84
2021/05/24 01:33:39;;;;;;;7.10;1.92;;;10.80;99.90;;;;;;6166806;23;20480;-88
2021/05/24 01:36:38;;;;;;;4.80;2.03;;;10.80;99.90;;;;;;6157300;23;20028;-88
2021/05/24 01:39:05;;;;;;;5.55;2.00;;;10.80;99.90;;;;;;6157269;23;20013;-89
2021/05/24 01:41:31;;;;;;;9.70;2.45;;;10.60;99.90;;;;;;6157266;23;20013;-86
2021/05/24 01:43:58;;;;;;;3.30;1.70;;;10.60;99.90;;;;;;6157264;23;20020;-85
2021/05/24 01:46:23;;;;;;;8.73;2.30;;;10.60;99.90;;;;;;6156172;23;20653;-87
2021/05/24 01:48:49;;;;;;;3.75;1.80;;;10.50;99.90;;;;;;6168301;23;20009;-83
2021/05/24 01:51:15;;;;;;;4.32;1.83;;;10.60;99.90;;;;;;6183306;23;20009;-85
2021/05/24 01:53:42;;;;;;;5.50;1.90;;;10.50;99.90;;;;;;6157575;23;20017;-84
2021/05/24 01:56:08;;;;;;;8.07;2.30;;;10.60;99.90;;;;;;6156316;23;20013;-86
2021/05/24 01:58:34;;;;;;;5.93;2.05;;;10.50;99.90;;;;;;6157285;23;20009;-85
2021/05/24 02:01:10;;;;;;;5.00;2.10;;;10.50;99.90;;;;;;6166489;23;20009;-88
2021/05/24 02:03:38;;;;;;;10.48;2.35;;;10.80;99.90;;;;;;6162243;23;20009;-84
2021/05/24 02:06:05;;;;;;;5.53;2.03;;;10.60;99.90;;;;;;6160732;23;20017;-86
2021/05/24 02:08:32;;;;;;;9.45;2.13;;;10.60;99.90;;;;;;6171252;23;20047;-82
2021/05/24 02:10:59;;;;;;;8.25;2.00;;;10.60;99.90;;;;;;6199109;23;20013;-81
2021/05/24 02:13:28;;;;;;;4.22;1.90;;;10.50;99.90;;;;;;6173490;23;20013;-82
2021/05/24 02:15:54;;;;;;;5.20;2.10;;;10.70;99.90;;;;;;6182855;23;20012;-82
2021/05/24 02:18:21;;;;;;;7.28;2.35;;;10.60;99.90;;;;;;6172680;23;20020;-82
2021/05/24 02:20:47;;;;;;;5.57;2.05;;;10.60;99.90;;;;;;6188400;23;20020;-86
2021/05/24 02:23:33;;;;;;;6.93;2.28;;;10.70;99.90;;;;;;6157312;23;20085;-83
2021/05/24 02:25:59;;;;;;;7.63;2.20;;;10.80;99.90;;;;;;6131903;23;20095;-85
2021/05/24 02:28:25;;;;;;;3.47;2.03;;;10.80;99.90;;;;;;6167680;23;20013;-89
2021/05/24 02:30:52;;;;;;;6.45;1.80;;;10.80;99.90;;;;;;6133299;23;20096;-87
2021/05/24 02:33:17;;;;;;;4.75;2.20;;;10.80;99.90;;;;;;6151881;23;20018;-90
2021/05/24 02:35:44;;;;;;;7.50;2.08;;;10.80;99.90;;;;;;6126492;23;20041;-86
2021/05/24 02:41:33;;;;;;;6.50;1.88;;;10.80;99.90;;;;;;6152164;23;20068;-84
2021/05/24 02:43:59;;;;;;;5.78;1.88;;;10.70;99.90;;;;;;6186189;23;20040;-87
2021/05/24 02:46:24;;;;;;;2.92;1.63;;;10.80;99.90;;;;;;6186071;23;20021;-88
2021/05/24 02:48:52;;;;;;;5.75;1.67;;;10.90;99.90;;;;;;6184164;23;20068;-87
2021/05/24 02:51:18;;;;;;;6.53;1.80;;;10.90;99.90;;;;;;6150940;23;20446;-85
2021/05/24 02:53:44;;;;;;;8.75;1.80;;;11.00;99.90;;;;;;6175816;23;20018;-84
2021/05/24 02:56:10;;;;;;;5.70;1.60;;;11.10;99.90;;;;;;6161339;23;20009;-84
2021/05/24 02:58:36;;;;;;;3.92;1.65;;;11.00;99.90;;;;;;6151663;23;20069;-85
2021/05/24 03:01:01;;;;;;;4.57;1.80;;;11.00;99.90;;;;;;6150997;23;20009;-87
2021/05/24 03:03:30;;;;;;;4.00;1.70;;;11.10;99.90;;;;;;6178783;23;20088;-86
2021/05/24 03:05:56;;;;;;;6.57;1.90;;;11.00;99.90;;;;;;6176185;23;20045;-89
2021/05/24 03:08:22;;;;;;;5.82;1.67;;;11.10;99.90;;;;;;6150871;23;20080;-84
2021/05/24 03:10:48;;;;;;;4.80;1.70;;;11.10;99.90;;;;;;6187074;23;20013;-83
2021/05/24 03:13:14;;;;;;;4.63;1.88;;;11.10;99.90;;;;;;6176952;23;20029;-84
2021/05/24 03:15:40;;;;;;;8.93;2.28;;;11.10;99.90;;;;;;6178177;23;20074;-83
2021/05/24 03:18:06;;;;;;;6.90;1.92;;;11.00;99.90;;;;;;6202201;23;20057;-83
2021/05/24 03:20:32;;;;;;;2.78;1.50;;;11.10;99.90;;;;;;6177072;23;20036;-83
2021/05/24 03:22:58;;;;;;;5.53;1.52;;;11.10;99.90;;;;;;6201157;23;20013;-83
2021/05/24 03:25:23;;;;;;;3.53;1.40;;;11.10;99.90;;;;;;6166190;23;20060;-83
2021/05/24 03:27:49;;;;;;;2.97;1.25;;;11.00;99.90;;;;;;6154832;23;20013;-89
2021/05/24 03:30:17;;;;;;;4.35;1.42;;;11.00;99.90;;;;;;6185598;23;20010;-85
2021/05/24 03:32:43;;;;;;;2.83;1.50;;;11.10;99.90;;;;;;6187845;23;20316;-86
2021/05/24 03:35:10;;;;;;;3.65;1.48;;;11.20;99.90;;;;;;6130531;23;20039;-85
2021/05/24 03:37:36;;;;;;;4.43;1.60;;;11.40;99.90;;;;;;6129270;23;20100;-86
2021/05/24 03:40:06;;;;;;;5.88;1.77;;;11.20;99.90;;;;;;6166779;23;20051;-85
2021/05/24 03:42:32;;;;;;;5.65;1.92;;;11.00;99.90;;;;;;6130695;23;20110;-86
2021/05/24 03:45:00;;;;;;;8.05;1.90;;;11.10;99.90;;;;;;6165294;23;20111;-86
2021/05/24 03:47:26;;;;;;;5.95;2.13;;;10.90;99.90;;;;;;6130230;23;20017;-87
2021/05/24 03:49:52;;;;;;;5.43;2.10;;;10.90;99.90;;;;;;6164140;23;20449;-86
2021/05/24 03:52:18;;;;;;;4.80;2.10;;;11.30;99.90;;;;;;6131147;23;20019;-88
2021/05/24 03:54:44;;;;;;;4.28;2.00;;;10.80;99.90;;;;;;6165227;23;20013;-85
2021/05/24 03:57:11;;;;;;;6.13;2.38;;;10.80;99.90;;;;;;6155505;23;20012;-85
2021/05/24 03:59:38;;;;;;;5.00;2.13;;;10.70;99.90;;;;;;6166502;23;20083;-83
2021/05/24 04:02:03;;;;;;;4.43;1.90;;;10.80;99.90;;;;;;6155003;23;20013;-86
2021/05/24 04:04:29;;;;;;;5.63;2.00;;;10.80;99.90;;;;;;6181999;23;20020;-87
2021/05/24 04:06:58;;;;;;;8.82;2.05;;;10.80;99.90;;;;;;6182305;23;20453;-87
2021/05/24 04:09:25;;;;;;;7.78;1.92;;;10.90;99.90;;;;;;6164385;23;20449;-85
2021/05/24 04:11:51;;;;;;;10.38;1.92;;;10.90;99.90;;;;;;6164700;23;20013;-85
2021/05/24 04:14:17;;;;;;;6.28;1.80;;;11.00;99.90;;;;;;6164683;23;20013;-84
2021/05/24 04:16:43;;;;;;;4.57;1.70;;;11.00;99.90;;;;;;6128525;23;20009;-87
2021/05/24 04:19:12;;;;;;;4.53;1.98;;;10.80;99.90;;;;;;6131353;23;20052;-86
2021/05/24 04:21:42;;;;;;;5.30;1.90;;;10.90;99.90;;;;;;6155254;23;20017;-85
2021/05/24 04:24:11;;;;;;;5.72;2.15;;;10.90;99.90;;;;;;6166348;23;20005;-83
2021/05/24 04:26:38;;;;;;;3.03;1.85;;;10.80;99.90;;;;;;6132327;23;20051;-85
2021/05/24 04:29:04;;;;;;;4.00;1.73;;;11.00;99.90;;;;;;6166909;23;20013;-88
2021/05/24 04:31:30;;;;;;;3.92;1.65;;;10.90;99.90;;;;;;6130633;23;20009;-87
2021/05/24 04:33:57;;;;;;;4.05;1.67;;;10.90;99.90;;;;;;6151460;23;20371;-84
2021/05/24 04:36:23;;;;;;;8.95;2.10;;;10.90;99.90;;;;;;6160942;23;20024;-85
2021/05/24 04:38:49;;;;;;;4.40;1.65;;;10.90;99.90;;;;;;6154656;23;20383;-84
2021/05/24 04:41:15;;;;;;;4.22;1.58;;;11.00;99.90;;;;;;6176253;23;20025;-84
2021/05/24 04:43:42;;;;;;;6.63;1.60;;;10.90;99.90;;;;;;6177668;23;20092;-88
2021/05/24 04:46:09;;;;;;;5.70;1.60;;;11.00;99.90;;;;;;6186314;23;20017;-89
2021/05/24 04:48:35;;;;;;;4.80;1.88;;;11.00;99.90;;;;;;6186457;23;20088;-86
2021/05/24 04:51:02;;;;;;;6.40;1.52;;;11.10;99.90;;;;;;6161635;23;20379;-86
2021/05/24 04:53:29;;;;;;;2.78;1.20;;;11.10;99.90;;;;;;6150116;23;20036;-83
2021/05/24 04:55:55;;;;;;;3.53;1.70;;;11.10;99.90;;;;;;6183964;23;20025;-87
2021/05/24 04:58:21;;;;;;;5.63;1.52;;;11.30;99.90;;;;;;6184897;23;20018;-83
2021/05/24 05:00:46;;;;;;;3.75;1.30;;;11.30;99.90;;;;;;6158479;23;20081;-83
2021/05/24 05:03:12;;;;;;;5.97;1.58;;;11.30;99.90;;;;;;6156209;23;20060;-86
2021/05/24 05:05:38;;;;;;;2.95;1.38;;;11.40;99.90;;;;;;6184379;23;20092;-86
2021/05/24 05:11:44;;;;;;;6.28;1.55;;;11.50;99.90;;;;;;6153438;23;20024;-85
2021/05/24 05:14:10;;;;;;;2.63;1.48;;;11.40;99.90;;;;;;6176360;23;20014;-85
2021/05/24 05:16:36;;;;;;;3.15;1.35;;;11.50;99.90;;;;;;6161684;23;20354;-83
2021/05/24 05:19:02;;;;;;;4.05;1.33;;;11.50;99.90;;;;;;6176003;23;20017;-83
2021/05/24 05:21:29;;;;;;;5.07;1.23;;;11.60;99.90;;;;;;6176584;23;20433;-84
2021/05/24 05:23:55;;;;;;;4.78;1.35;;;11.50;99.90;;;;;;6149692;23;20021;-85
2021/05/24 05:26:21;;;;;;;3.38;1.35;;;11.60;99.90;;;;;;6176306;23;20075;-82
2021/05/24 05:28:46;;;;;;;4.55;1.70;;;11.60;99.90;;;;;;6152269;23;20083;-82
2021/05/24 05:31:13;;;;;;;3.63;1.30;;;11.60;99.90;;;;;;6185208;23;20014;-83
2021/05/24 05:33:39;;;;;;;3.38;1.38;;;11.70;99.90;;;;;;6151296;23;20373;-83
2021/05/24 05:36:06;;;;;;;3.08;1.30;;;11.50;99.90;;;;;;6127320;23;20021;-84
2021/05/24 05:38:33;;;;;;;5.18;1.55;;;11.60;99.90;;;;;;6151330;23;20014;-84
2021/05/24 05:40:59;;;;;;;3.50;1.35;;;11.60;99.90;;;;;;6186399;23;20151;-84
2021/05/24 05:43:28;;;;;;;4.78;1.40;;;11.70;99.90;;;;;;6177070;23;20076;-85
2021/05/24 05:45:54;;;;;;;2.80;1.30;;;11.80;99.90;;;;;;6163670;23;20492;-85
2021/05/24 05:48:19;;;;;;;4.72;1.10;;;11.80;99.90;;;;;;6154277;23;20025;-81
2021/05/24 05:50:46;;;;;;;3.00;1.38;;;11.90;99.90;;;;;;6164352;23;20013;-79
2021/05/24 05:53:13;;;;;;;3.72;1.45;;;11.90;99.90;;;;;;6177228;23;20013;-81
2021/05/24 05:55:39;;;;;;;4.68;1.40;;;12.00;99.90;;;;;;6162459;23;20432;-83
2021/05/24 05:58:05;;;;;;;5.15;1.52;;;12.00;99.90;;;;;;6154733;23;20033;-84
2021/05/24 06:00:31;;;;;;;3.78;1.77;;;11.90;99.90;;;;;;6186240;23;20017;-80
2021/05/24 06:02:57;;;;;;;4.32;1.40;;;12.10;99.90;;;;;;6182165;23;20019;-78
2021/05/24 06:05:23;;;;;;;4.50;1.25;;;12.10;99.90;;;;;;6174494;23;20021;-80
2021/05/24 06:07:49;;;;;;;5.95;1.40;;;12.20;99.90;;;;;;6150258;23;20080;-83
2021/05/24 06:10:16;;;;;;;3.30;1.20;;;12.20;99.90;;;;;;6185839;23;20442;-82
2021/05/24 06:12:43;;;;;;;4.13;1.38;;;12.40;99.90;;;;;;6186545;23;20059;-83
2021/05/24 06:15:13;;;;;;;5.25;1.30;;;12.40;99.90;;;;;;6185350;23;20016;-83
2021/05/24 06:17:38;;;;;;;2.58;1.30;;;12.50;99.90;;;;;;6186930;23;20748;-81
2021/05/24 06:20:05;;;;;;;9.63;1.50;;;12.60;99.90;;;;;;6152181;23;20045;-84
2021/05/24 06:22:33;;;;;;;5.13;1.65;;;12.60;99.90;;;;;;6149949;23;20031;-83
2021/05/24 06:24:59;;;;;;;7.65;1.30;;;12.70;99.90;;;;;;6174290;23;20087;-81
2021/05/24 06:27:25;;;;;;;2.70;1.20;;;12.80;99.90;;;;;;6150664;23;20021;-81
2021/05/24 06:29:51;;;;;;;3.13;1.13;;;12.80;99.90;;;;;;6175744;23;20016;-81
2021/05/24 06:32:18;;;;;;;3.63;1.10;;;13.00;99.90;;;;;;6185746;23;20021;-85
2021/05/24 06:34:43;;;;;;;7.85;1.35;;;13.10;99.90;;;;;;6177920;23;20032;-83
2021/05/24 06:37:25;;;;;;;3.83;1.17;;;13.20;99.90;;;;;;6150232;23;20013;-81
2021/05/24 06:39:50;;;;;;;5.15;1.17;;;13.40;99.90;;;;;;6150697;23;20516;-81
2021/05/24 06:42:16;;;;;;;6.40;1.50;;;13.30;99.90;;;;;;6151853;23;20017;-85
2021/05/24 06:44:43;;;;;;;4.57;1.40;;;13.40;99.90;;;;;;6164370;23;20017;-87
2021/05/24 06:47:09;;;;;;;3.40;1.20;;;13.40;99.90;;;;;;6179977;23;20016;-86
2021/05/24 06:49:35;;;;;;;4.72;1.40;;;13.40;99.90;;;;;;6165482;23;20319;-84
2021/05/24 06:52:04;;;;;;;4.90;1.23;;;13.50;99.90;;;;;;6179009;23;20075;-82
2021/05/24 06:54:31;;;;;;;3.60;1.20;;;13.60;99.90;;;;;;6166119;23;20031;-81
2021/05/24 06:56:57;;;;;;;2.95;1.20;;;13.60;99.90;;;;;;6152621;23;20029;-85
2021/05/24 06:59:23;;;;;;;5.40;1.40;;;13.80;99.90;;;;;;6128934;23;20014;-85
2021/05/24 07:01:52;;;;;;;5.57;1.40;;;13.80;99.90;;;;;;6190818;23;20005;-84
2021/05/24 07:04:18;;;;;;;8.05;1.52;;;14.00;99.90;;;;;;6155930;23;20013;-86
2021/05/24 07:06:44;;;;;;;3.28;1.23;;;14.00;99.90;;;;;;6185901;23;20018;-84
2021/05/24 07:09:10;;;;;;;3.97;1.10;;;14.10;99.90;;;;;;6178736;23;20319;-88
2021/05/24 07:11:36;;;;;;;4.22;1.40;;;14.10;99.90;;;;;;6163574;23;20041;-86
2021/05/24 07:14:02;;;;;;;3.63;1.10;;;14.10;99.90;;;;;;6176480;23;20010;-87
2021/05/24 07:16:28;;;;;;;5.07;1.10;;;14.20;99.90;;;;;;6186230;23;20014;-84
2021/05/24 07:18:54;;;;;;;5.53;1.00;;;14.20;99.90;;;;;;6162934;23;20374;-84
2021/05/24 07:21:19;;;;;;;3.35;1.00;;;14.30;99.90;;;;;;6162448;23;20029;-84
2021/05/24 07:23:45;;;;;;;4.78;0.88;;;14.30;99.90;;;;;;6175775;23;20013;-84
2021/05/24 07:26:11;;;;;;;4.47;1.33;;;14.30;99.90;;;;;;6150787;23;20133;-81
2021/05/24 07:28:37;;;;;;;3.03;0.90;;;14.50;99.90;;;;;;6162260;23;20032;-81
2021/05/24 07:31:03;;;;;;;3.53;1.05;;;14.70;99.90;;;;;;6150402;23;20014;-83
2021/05/24 07:33:29;;;;;;;2.83;1.00;;;14.80;99.90;;;;;;6175366;23;20382;-88
2021/05/24 07:35:55;;;;;;;3.78;1.15;;;14.70;99.90;;;;;;6162727;23;20101;-87
2021/05/24 07:38:21;;;;;;;4.07;1.30;;;14.60;99.90;;;;;;6151540;23;20013;-82
2021/05/24 07:40:49;;;;;;;4.55;1.10;;;14.60;99.90;;;;;;6186110;23;20024;-85
2021/05/24 07:43:15;;;;;;;3.78;1.20;;;14.50;99.90;;;;;;6175941;23;20088;-80
2021/05/24 07:45:41;;;;;;;2.38;0.80;;;14.50;99.90;;;;;;6151923;23;20049;-80
2021/05/24 07:48:07;;;;;;;4.88;1.30;;;14.50;99.90;;;;;;6162864;23;20020;-83
2021/05/24 07:50:34;;;;;;;5.32;1.25;;;14.60;99.90;;;;;;6175008;23;20932;-86
2021/05/24 07:52:59;;;;;;;4.80;1.02;;;14.50;99.90;;;;;;6151491;23;20036;-82
2021/05/24 07:55:27;;;;;;;8.27;1.33;;;14.50;99.90;;;;;;6151603;23;20438;-82
2021/05/24 07:57:53;;;;;;;8.02;1.50;;;14.60;99.90;;;;;;6176428;23;20124;-85
2021/05/24 08:00:19;;;;;;;2.47;1.10;;;14.60;99.90;;;;;;6163269;23;20065;-82
2021/05/24 08:02:45;;;;;;;3.67;1.55;;;14.70;99.90;;;;;;6153996;23;20017;-83
2021/05/24 08:05:13;;;;;;;5.28;1.30;;;14.60;99.90;;;;;;6187165;23;20304;-83
2021/05/24 08:07:40;;;;;;;2.75;1.08;;;14.70;99.90;;;;;;6177111;23;20410;-82
2021/05/24 08:10:08;;;;;;;4.32;1.15;;;14.70;99.90;;;;;;6164137;23;20041;-84
2021/05/24 08:12:37;;;;;;;3.30;0.98;;;14.70;99.90;;;;;;6164200;23;20021;-84
2021/05/24 08:15:12;;;;;;;3.13;1.10;;;14.60;99.90;;;;;;6126271;23;20009;-82
2021/05/24 08:17:38;;;;;;;2.78;1.20;;;14.30;99.90;;;;;;6177989;23;20120;-83
2021/05/24 08:20:06;;;;;;;8.48;1.20;;;14.10;99.90;;;;;;6176768;23;20049;-83
2021/05/24 08:22:32;;;;;;;3.92;1.08;;;14.00;99.90;;;;;;6152567;23;20013;-83
2021/05/24 08:24:58;;;;;;;4.13;1.38;;;13.90;99.90;;;;;;6164049;23;20013;-82
2021/05/24 08:27:25;;;;;;;4.53;1.30;;;13.70;99.90;;;;;;6177390;23;20014;-82
2021/05/24 08:29:58;;;;;;;3.13;1.30;;;13.40;99.90;;;;;;6178109;23;20016;-86
2021/05/24 08:32:24;;;;;;;5.60;1.30;;;13.40;99.90;;;;;;6153565;23;20508;-86
2021/05/24 08:34:50;;;;;;;4.10;1.30;;;13.30;99.90;;;;;;6176055;23;20029;-83
2021/05/24 08:37:16;;;;;;;3.83;1.38;;;13.10;99.90;;;;;;6152050;23;20556;-87
2021/05/24 08:39:43;;;;;;;3.35;1.58;;;13.00;99.90;;;;;;6178280;23;20328;-83
2021/05/24 08:42:09;;;;;;;6.10;1.50;;;12.80;99.90;;;;;;6176652;23;20041;-84
2021/05/24 08:44:37;;;;;;;5.75;1.58;;;12.70;99.90;;;;;;6178347;23;20021;-87
2021/05/24 08:47:05;;;;;;;4.63;1.25;;;12.70;99.90;;;;;;6178557;23;20076;-83
2021/05/24 08:49:31;;;;;;;1.70;0.90;;;12.50;99.90;;;;;;6179138;23;20017;-84
2021/05/24 08:51:57;;;;;;;4.00;1.25;;;12.50;99.90;;;;;;6189780;23;20010;-83
2021/05/24 08:54:24;;;;;;;2.38;1.10;;;12.50;99.90;;;;;;6178924;23;20382;-83
2021/05/24 08:56:50;;;;;;;2.95;1.08;;;12.50;99.90;;;;;;6178063;23;20051;-83
2021/05/24 08:59:15;;;;;;;3.05;1.10;;;12.60;99.90;;;;;;6155546;23;20018;-86
2021/05/24 09:01:43;;;;;;;3.78;1.20;;;12.60;99.90;;;;;;6178912;23;20069;-84
2021/05/24 09:04:08;;;;;;;3.08;1.10;;;12.50;99.90;;;;;;6159891;23;20014;-85
2021/05/24 09:06:39;;;;;;;3.42;1.08;;;12.50;99.90;;;;;;6162350;23;20020;-79
2021/05/24 09:09:27;;;;;;;4.53;1.00;;;12.40;99.90;;;;;;6185012;23;20048;-81
2021/05/24 09:11:54;;;;;;;5.25;1.30;;;12.40;99.90;;;;;;6178852;23;20382;-86
2021/05/24 09:14:27;;;;;;;3.05;1.20;;;12.30;99.90;;;;;;6178778;23;20048;-85
2021/05/24 09:16:57;;;;;;;5.00;1.27;;;12.30;99.90;;;;;;6179254;23;20033;-86
2021/05/24 09:19:25;;;;;;;3.58;1.15;;;12.30;99.90;;;;;;6179288;23;20045;-84
2021/05/24 09:21:59;;;;;;;3.70;1.27;;;12.50;99.90;;;;;;6179335;23;20037;-85
2021/05/24 09:24:37;;;;;;;4.03;1.60;;;12.60;99.90;;;;;;6154414;23;20096;-81
2021/05/24 09:27:05;;;;;;;3.30;1.10;;;12.70;99.90;;;;;;6156377;23;20017;-80
2021/05/24 09:29:45;;;;;;;2.97;1.30;;;12.80;99.90;;;;;;6189566;23;20010;-86
2021/05/24 09:32:11;;;;;;;5.55;1.35;;;12.90;99.90;;;;;;6129365;23;20013;-84
2021/05/24 09:34:38;;;;;;;3.50;1.02;;;12.90;99.90;;;;;;6179230;23;20016;-82
2021/05/24 09:37:08;;;;;;;3.45;1.40;;;13.00;99.90;;;;;;6158318;23;20021;-84
2021/05/24 09:39:36;;;;;;;2.47;1.17;;;13.00;99.90;;;;;;6161656;23;20341;-86
2021/05/24 09:42:20;;;;;;;2.65;1.20;;;13.00;99.90;;;;;;6183885;23;20399;-82
2021/05/24 09:44:53;;;;;;;2.47;1.23;;;13.10;99.90;;;;;;6157301;23;20013;-82
2021/05/24 09:47:33;;;;;;;2.28;1.20;;;13.00;99.90;;;;;;6157670;23;20520;-85
2021/05/24 09:50:10;;;;;;;3.13;1.20;;;13.00;99.90;;;;;;6136130;23;20091;-83
2021/05/24 09:52:40;;;;;;;5.07;1.20;;;13.00;99.90;;;;;;6203536;23;20017;-80
2021/05/24 09:55:31;;;;;;;4.30;1.30;;;13.00;99.90;;;;;;6165802;23;20019;-82
2021/05/24 09:58:06;;;;;;;2.78;1.30;;;13.00;99.90;;;;;;6166172;23;20039;-80
2021/05/24 10:00:51;;;;;;;2.63;1.30;;;13.00;99.90;;;;;;6164435;23;20017;-82
2021/05/24 10:03:20;;;;;;;2.35;1.20;;;13.00;99.90;;;;;;6137164;23;20036;-79
2021/05/24 10:05:49;;;;;;;2.97;1.27;;;13.00;99.90;;;;;;6160469;23;20029;-79
2021/05/24 10:08:15;;;;;;;6.20;1.10;;;12.90;99.90;;;;;;6133332;23;20013;-85
2021/05/24 10:10:42;;;;;;;4.10;1.17;;;12.80;99.90;;;;;;6168651;23;20013;-81
2021/05/24 10:13:08;;;;;;;4.65;1.15;;;12.80;99.90;;;;;;6157945;23;20453;-80
2021/05/24 10:15:39;;;;;;;4.30;1.08;;;12.80;99.90;;;;;;6156571;23;20019;-81
2021/05/24 10:18:06;;;;;;;5.95;1.20;;;12.80;99.90;;;;;;6167742;23;20562;-83
2021/05/24 10:20:34;;;;;;;3.00;1.30;;;12.80;99.90;;;;;;6157680;23;20032;-80
2021/05/24 10:26:43;;;;;;;9.95;1.30;;;12.90;99.90;;;;;;6194053;23;20101;-84
2021/05/24 10:29:11;;;;;;;4.57;1.48;;;13.10;99.90;;;;;;6178849;23;20043;-81
2021/05/24 10:31:37;;;;;;;3.20;1.13;;;13.10;99.90;;;;;;6201714;23;20016;-82
2021/05/24 10:34:11;;;;;;;2.28;1.00;;;13.40;99.90;;;;;;6186661;23;20014;-82
2021/05/24 10:36:37;;;;;;;2.42;1.20;;;13.60;99.90;;;;;;6131439;23;20024;-82
2021/05/24 10:39:19;;;;;;;3.15;1.30;;;13.90;99.90;;;;;;6167115;23;20048;-82
2021/05/24 10:41:50;;;;;;;3.35;1.27;;;14.00;99.90;;;;;;6129555;23;20017;-85
2021/05/24 10:44:21;;;;;;;3.50;1.20;;;14.20;99.90;;;;;;6154705;23;20021;-86
2021/05/24 10:46:49;;;;;;;2.35;1.10;;;14.20;99.90;;;;;;6164363;23;20024;-86
2021/05/24 10:49:24;;;;;;;4.68;1.30;;;14.40;99.90;;;;;;6151936;23;20025;-82
2021/05/24 10:51:55;;;;;;;;;;;14.60;99.90;;;;;;6156971;23;20033;-85
2021/05/24 10:54:21;;;;;;;2.55;1.20;;;14.60;99.90;;;;;;6129548;23;19960;-83
2021/05/24 10:57:05;;;;;;;2.15;1.10;;;14.80;99.90;;;;;;6155536;23;20017;-81
2021/05/24 10:59:40;;;;;;;3.25;1.25;;;15.20;99.90;;;;;;6153174;23;20017;-83
2021/05/24 11:02:16;;;;;;;5.63;1.10;;;15.40;99.90;;;;;;6152767;23;20072;-83
2021/05/24 11:05:02;;;;;;;2.80;1.30;;;15.40;99.90;;;;;;6131196;23;20013;-86
2021/05/24 11:07:30;;;;;;;3.35;1.40;;;15.20;99.90;;;;;;6153306;23;20097;-84
2021/05/24 11:10:18;;;;;;;1.95;1.10;;;15.20;99.90;;;;;;6155524;23;20318;-84
2021/05/24 11:13:12;;;;;;;4.57;1.40;;;15.20;99.90;;;;;;6153763;23;20037;-82
2021/05/24 11:15:42;;;;;;;3.25;1.20;;;15.10;99.90;;;;;;6128650;23;20022;-84
2021/05/24 11:18:08;;;;;;;2.70;1.10;;;15.20;99.90;;;;;;6153196;23;20438;-85
2021/05/24 11:20:47;;;;;;;6.03;1.50;;;15.10;99.90;;;;;;6163673;23;20093;-86
2021/05/24 11:26:16;;;;;;;4.82;1.20;;;14.90;99.90;;;;;;6164690;23;20013;-87
2021/05/24 11:28:50;;;;;;;4.97;1.30;;;15.00;99.90;;;;;;6164431;23;20056;-86
2021/05/24 11:31:29;;;;;;;3.63;1.30;;;15.10;99.90;;;;;;6154659;23;20017;-82
2021/05/24 11:33:57;;;;;;;2.00;1.30;;;15.20;99.90;;;;;;6183094;23;20028;-84
2021/05/24 11:36:28;;;;;;;6.55;1.63;;;15.20;99.90;;;;;;6178066;23;20017;-82
2021/05/24 11:39:26;;;;;;;4.30;1.60;;;15.30;99.90;;;;;;6154988;23;20040;-82
2021/05/24 11:41:53;;;;;;;2.03;1.30;;;15.20;99.90;;;;;;6187749;23;20068;-82
2021/05/24 11:44:27;;;;;;;3.22;1.45;;;15.30;99.90;;;;;;6178042;23;20036;-84
2021/05/24 11:46:56;;;;;;;6.03;1.63;;;15.30;99.90;;;;;;6176245;23;20026;-85
2021/05/24 11:49:36;;;;;;;5.47;1.60;;;15.30;99.90;;;;;;6154708;23;20021;-86
2021/05/24 11:52:04;;;;;;;3.65;1.40;;;15.40;99.90;;;;;;6152776;23;20017;-85
2021/05/24 11:54:30;;;;;;;2.85;1.50;;;15.20;99.90;;;;;;6177755;23;20028;-81
2021/05/24 11:56:59;;;;;;;3.38;1.58;;;15.30;99.90;;;;;;6187156;23;20064;-84
2021/05/24 11:59:26;;;;;;;3.03;1.30;;;15.10;99.90;;;;;;6164241;23;20017;-82
2021/05/24 12:01:54;;;;;;;4.72;1.40;;;15.10;99.90;;;;;;6186961;23;20010;-84
2021/05/24 12:04:23;;;;;;;5.43;1.48;;;15.10;99.90;;;;;;6128856;23;20010;-84
2021/05/24 12:07:01;;;;;;;3.30;1.50;;;15.30;99.90;;;;;;6177380;23;20021;-85
2021/05/24 12:09:44;;;;;;;5.43;1.50;;;15.30;99.90;;;;;;6159967;23;20021;-83
2021/05/24 12:12:12;;;;;;;3.25;1.38;;;15.40;99.90;;;;;;6164308;23;20084;-83
2021/05/24 12:14:40;;;;;;;3.05;1.10;;;15.50;99.90;;;;;;6188398;23;20014;-82
2021/05/24 12:17:14;;;;;;;2.25;1.08;;;15.70;99.90;;;;;;6154435;23;20014;-82
2021/05/24 12:19:41;;;;;;;4.00;1.10;;;15.60;99.90;;;;;;6152919;23;20031;-82
2021/05/24 12:22:08;;;;;;;1.10;0.90;;;15.50;99.90;;;;;;6154341;23;20014;-80
2021/05/24 12:24:39;;;;;;;1.65;0.90;;;15.40;99.90;;;;;;6128071;23;20442;-85
2021/05/24 12:27:06;;;;;;;3.42;0.90;;;15.20;99.90;;;;;;6154276;23;20025;-85
2021/05/24 12:29:46;;;;;;;3.28;1.13;;;15.10;99.90;;;;;;6177289;23;20076;-85
2021/05/24 12:32:11;;;;;;;2.40;1.02;;;15.00;99.90;;;;;;6163982;23;20009;-85
2021/05/24 12:34:43;;;;;;;1.63;0.80;;;15.00;99.90;;;;;;6179239;23;20084;-84
2021/05/24 12:37:12;;;;;;;0.90;0.80;;;14.90;99.90;;;;;;6156886;23;20075;-83
2021/05/24 12:39:44;;;;;;;3.25;1.17;;;14.80;99.90;;;;;;6156900;23;20020;-82
2021/05/24 12:42:11;;;;;;;2.10;1.15;;;14.90;99.90;;;;;;6166448;23;20024;-82
2021/05/24 12:44:38;;;;;;;2.65;0.82;;;14.90;99.90;;;;;;6193545;23;20398;-82
2021/05/24 12:47:14;;;;;;;1.67;1.00;;;14.70;99.90;;;;;;6156319;23;20021;-83
2021/05/24 12:49:44;;;;;;;4.15;1.10;;;14.70;99.90;;;;;;6156114;23;20465;-86
2021/05/24 12:52:10;;;;;;;1.30;0.70;;;14.80;99.90;;;;;;6167308;23;20048;-81
2021/05/24 12:55:29;;;;;;;1.52;0.77;;;14.60;99.90;;;;;;6183865;23;20014;-88
2021/05/24 12:57:55;;;;;;;3.38;0.88;;;14.50;99.90;;;;;;6184379;23;20056;-86
2021/05/24 13:00:21;;;;;;;3.97;0.85;;;14.40;99.90;;;;;;6132020;23;20071;-85
2021/05/24 13:02:51;;;;;;;2.65;0.90;;;14.30;99.90;;;;;;6190858;23;20013;-87
2021/05/24 13:05:19;;;;;;;0.70;0.70;;;14.20;99.90;;;;;;6133192;23;20052;-83
2021/05/24 13:07:46;;;;;;;2.70;0.93;;;14.20;99.90;;;;;;6184334;23;20179;-86